createdAt,value
2018-12-26T00:00:07.151Z,12.80
2018-12-26T00:01:07.035Z,13.80
2018-12-26T00:02:07.004Z,13.30
2018-12-26T00:03:06.972Z,14.20
2018-12-26T00:04:06.940Z,11.30
2018-12-26T00:05:06.910Z,14.40
2018-12-26T00:06:06.879Z,11.40
2018-12-26T00:07:06.847Z,12.40
2018-12-26T00:08:06.817Z,11.30
2018-12-26T00:09:06.790Z,12.50
2018-12-26T00:10:06.754Z,16.10
2018-12-26T00:11:06.724Z,14.00
2018-12-26T00:12:06.695Z,9.70
2018-12-26T00:13:06.662Z,10.70
2018-12-26T00:14:06.633Z,13.70
2018-12-26T00:15:06.598Z,13.30
2018-12-26T00:16:06.568Z,12.60
2018-12-26T00:17:06.538Z,13.00
2018-12-26T00:18:06.508Z,18.90
2018-12-26T00:19:06.475Z,17.90
2018-12-26T00:20:06.478Z,17.00
2018-12-26T00:21:06.417Z,20.50
2018-12-26T00:22:06.380Z,16.00
2018-12-26T00:23:06.348Z,20.90
2018-12-26T00:24:06.319Z,15.40
2018-12-26T00:25:06.310Z,17.30
2018-12-26T00:26:06.256Z,16.90
2018-12-26T00:27:06.224Z,21.30
2018-12-26T00:28:06.196Z,16.90
2018-12-26T00:29:06.614Z,20.00
2018-12-26T00:30:06.130Z,18.90
2018-12-26T00:31:06.103Z,18.40
2018-12-26T00:32:06.069Z,17.60
2018-12-26T00:33:06.036Z,18.50
2018-12-26T00:34:06.005Z,20.60
2018-12-26T00:35:05.976Z,18.10
2018-12-26T00:36:05.943Z,14.80
2018-12-26T00:37:05.911Z,17.40
2018-12-26T00:38:05.881Z,16.10
2018-12-26T00:39:05.846Z,19.30
2018-12-26T00:40:05.819Z,22.70
2018-12-26T00:41:05.783Z,19.40
2018-12-26T00:42:05.753Z,23.80
2018-12-26T00:43:05.721Z,21.60
2018-12-26T00:44:05.689Z,22.20
2018-12-26T00:45:05.659Z,21.80
2018-12-26T00:46:05.629Z,24.30
2018-12-26T00:47:05.594Z,21.90
2018-12-26T00:48:05.564Z,19.10
2018-12-26T00:49:05.530Z,21.90
2018-12-26T00:50:05.499Z,23.00
2018-12-26T00:51:05.476Z,25.30
2018-12-26T00:52:05.437Z,19.40
2018-12-26T00:53:05.405Z,25.00
2018-12-26T00:54:05.375Z,24.80
2018-12-26T00:55:05.342Z,21.50
2018-12-26T00:56:10.459Z,27.80
2018-12-26T00:57:05.282Z,22.50
2018-12-26T00:58:05.265Z,25.20
2018-12-26T00:59:05.215Z,29.10
2018-12-26T01:00:05.187Z,22.50
2018-12-26T01:01:05.151Z,26.40
2018-12-26T01:02:05.128Z,27.20
2018-12-26T01:03:05.091Z,16.50
2018-12-26T01:04:05.064Z,26.80
2018-12-26T01:05:05.029Z,26.10
2018-12-26T01:06:05.026Z,26.80
2018-12-26T01:07:04.961Z,20.30
2018-12-26T01:08:04.931Z,30.20
2018-12-26T01:09:04.898Z,23.20
2018-12-26T01:10:04.867Z,26.60
2018-12-26T01:11:04.834Z,28.20
2018-12-26T01:12:04.801Z,31.10
2018-12-26T01:13:04.772Z,27.40
2018-12-26T01:14:04.741Z,28.10
2018-12-26T01:15:04.709Z,26.40
2018-12-26T01:16:04.676Z,25.00
2018-12-26T01:17:04.644Z,26.60
2018-12-26T01:18:04.612Z,25.00
2018-12-26T01:19:04.580Z,24.80
2018-12-26T01:20:04.548Z,34.40
2018-12-26T01:21:04.516Z,25.10
2018-12-26T01:22:04.484Z,29.60
2018-12-26T01:23:04.452Z,24.40
2018-12-26T01:24:04.421Z,31.00
2018-12-26T01:25:04.389Z,38.90
2018-12-26T01:26:04.363Z,39.10
2018-12-26T01:27:04.326Z,29.90
2018-12-26T01:28:04.293Z,32.70
2018-12-26T01:29:04.262Z,37.50
2018-12-26T01:30:04.229Z,31.70
2018-12-26T01:31:04.198Z,34.40
2018-12-26T01:32:04.166Z,31.00
2018-12-26T01:33:04.138Z,38.10
2018-12-26T01:34:04.104Z,37.30
2018-12-26T01:35:04.070Z,45.90
2018-12-26T01:36:04.038Z,42.50
2018-12-26T01:37:04.220Z,37.50
2018-12-26T01:38:03.975Z,42.00
2018-12-26T01:39:03.942Z,38.80
2018-12-26T01:40:03.911Z,40.40
2018-12-26T01:41:03.887Z,41.80
2018-12-26T01:42:03.848Z,50.20
2018-12-26T01:43:03.816Z,44.80
2018-12-26T01:44:03.783Z,44.50
2018-12-26T01:45:03.757Z,43.60
2018-12-26T01:46:03.721Z,46.00
2018-12-26T01:47:03.687Z,50.70
2018-12-26T01:48:03.656Z,41.50
2018-12-26T01:49:03.628Z,43.90
2018-12-26T01:50:03.593Z,54.10
2018-12-26T01:51:03.561Z,51.70
2018-12-26T01:52:03.527Z,51.20
2018-12-26T01:53:03.497Z,46.10
2018-12-26T01:54:03.464Z,48.90
2018-12-26T01:55:03.433Z,54.50
2018-12-26T01:56:03.403Z,59.90
2018-12-26T01:57:03.369Z,55.40
2018-12-26T01:58:03.338Z,49.80
2018-12-26T01:59:03.306Z,54.30
2018-12-26T02:00:03.277Z,53.80
2018-12-26T02:01:03.242Z,56.70
2018-12-26T02:02:03.210Z,55.00
2018-12-26T02:03:03.176Z,68.80
2018-12-26T02:04:03.150Z,68.30
2018-12-26T02:05:03.117Z,67.70
2018-12-26T02:06:03.086Z,55.20
2018-12-26T02:07:03.053Z,65.50
2018-12-26T02:08:03.022Z,42.50
2018-12-26T02:09:02.989Z,59.40
2018-12-26T02:10:02.957Z,55.90
2018-12-26T02:11:02.923Z,61.40
2018-12-26T02:12:02.891Z,64.90
2018-12-26T02:13:02.859Z,65.20
2018-12-26T02:14:02.828Z,60.50
2018-12-26T02:15:02.795Z,61.80
2018-12-26T02:16:02.763Z,64.70
2018-12-26T02:17:02.736Z,79.10
2018-12-26T02:18:02.700Z,77.00
2018-12-26T02:19:02.668Z,78.80
2018-12-26T02:20:02.637Z,57.90
2018-12-26T02:21:02.702Z,58.70
2018-12-26T02:22:02.573Z,66.60
2018-12-26T02:23:02.542Z,71.60
2018-12-26T02:24:02.508Z,71.20
2018-12-26T02:25:02.483Z,54.80
2018-12-26T02:26:02.444Z,71.40
2018-12-26T02:27:02.411Z,62.80
2018-12-26T02:28:02.380Z,60.30
2018-12-26T02:29:02.350Z,55.60
2018-12-26T02:30:02.320Z,60.60
2018-12-26T02:31:02.325Z,61.80
2018-12-26T02:32:02.258Z,62.10
2018-12-26T02:33:02.222Z,57.10
2018-12-26T02:34:02.188Z,76.90
2018-12-26T02:35:02.162Z,61.30
2018-12-26T02:36:02.156Z,62.10
2018-12-26T02:37:02.148Z,74.20
2018-12-26T02:38:02.062Z,71.40
2018-12-26T02:39:02.029Z,70.60
2018-12-26T02:40:01.998Z,69.90
2018-12-26T02:41:01.966Z,71.70
2018-12-26T02:42:01.933Z,83.60
2018-12-26T02:43:01.903Z,71.20
2018-12-26T02:44:01.875Z,67.90
2018-12-26T02:45:01.843Z,76.60
2018-12-26T02:46:01.808Z,57.50
2018-12-26T02:47:01.778Z,74.10
2018-12-26T02:48:01.747Z,70.70
2018-12-26T02:49:01.757Z,61.30
2018-12-26T02:50:01.688Z,70.50
2018-12-26T02:51:01.646Z,74.90
2018-12-26T02:52:01.619Z,80.60
2018-12-26T02:53:01.582Z,59.20
2018-12-26T02:54:01.553Z,74.10
2018-12-26T02:55:01.533Z,70.50
2018-12-26T02:56:01.493Z,74.90
2018-12-26T02:57:01.456Z,75.30
2018-12-26T02:58:01.428Z,78.30
2018-12-26T02:59:01.395Z,74.30
2018-12-26T03:00:01.360Z,71.10
2018-12-26T03:01:01.329Z,70.70
2018-12-26T03:02:01.298Z,70.40
2018-12-26T03:03:01.265Z,66.80
2018-12-26T03:04:01.233Z,80.30
2018-12-26T03:05:01.213Z,85.30
2018-12-26T03:06:01.171Z,78.90
2018-12-26T03:07:01.137Z,73.30
2018-12-26T03:08:01.105Z,76.10
2018-12-26T03:09:01.074Z,73.30
2018-12-26T03:10:01.070Z,74.60
2018-12-26T03:11:01.010Z,65.10
2018-12-26T03:12:00.979Z,72.30
2018-12-26T03:13:00.947Z,59.90
2018-12-26T03:14:03.168Z,63.50
2018-12-26T03:15:00.901Z,60.50
2018-12-26T03:16:00.850Z,59.60
2018-12-26T03:17:00.821Z,63.80
2018-12-26T03:18:00.790Z,69.30
2018-12-26T03:19:00.756Z,66.10
2018-12-26T03:20:00.723Z,57.70
2018-12-26T03:21:00.695Z,70.80
2018-12-26T03:22:00.664Z,76.30
2018-12-26T03:23:00.629Z,72.60
2018-12-26T03:24:00.596Z,73.60
2018-12-26T03:25:00.564Z,76.10
2018-12-26T03:26:00.531Z,75.40
2018-12-26T03:27:00.520Z,65.70
2018-12-26T03:28:00.469Z,75.00
2018-12-26T03:29:00.437Z,70.80
2018-12-26T03:30:00.407Z,79.60
2018-12-26T03:31:00.374Z,86.90
2018-12-26T03:32:00.362Z,49.30
2018-12-26T03:33:00.316Z,66.50
2018-12-26T03:34:00.278Z,66.20
2018-12-26T03:35:00.267Z,72.60
2018-12-26T03:36:00.215Z,54.70
2018-12-26T03:37:00.182Z,67.30
2018-12-26T03:38:00.151Z,66.10
2018-12-26T03:39:00.121Z,74.50
2018-12-26T03:40:00.087Z,83.80
2018-12-26T03:41:00.055Z,78.90
2018-12-26T03:42:00.024Z,76.00
2018-12-26T03:42:59.990Z,68.80
2018-12-26T03:43:59.959Z,81.50
2018-12-26T03:44:59.926Z,83.10
2018-12-26T03:45:59.900Z,76.30
2018-12-26T03:46:59.862Z,84.40
2018-12-26T03:47:59.830Z,64.60
2018-12-26T03:48:59.799Z,74.70
2018-12-26T03:49:59.768Z,67.00
2018-12-26T03:50:59.734Z,70.80
2018-12-26T03:52:02.086Z,85.20
2018-12-26T03:52:59.671Z,80.50
2018-12-26T03:53:59.641Z,70.70
2018-12-26T03:54:59.609Z,83.80
2018-12-26T03:55:59.577Z,88.60
2018-12-26T03:57:06.051Z,85.60
2018-12-26T03:57:59.512Z,95.90
2018-12-26T03:58:59.479Z,85.10
2018-12-26T03:59:59.448Z,74.80
2018-12-26T04:00:59.415Z,66.00
2018-12-26T04:01:59.397Z,94.40
2018-12-26T04:02:59.356Z,80.00
2018-12-26T04:03:59.320Z,91.20
2018-12-26T04:04:59.289Z,101.80
2018-12-26T04:05:59.257Z,94.40
2018-12-26T04:06:59.225Z,105.80
2018-12-26T04:07:59.199Z,94.50
2018-12-26T04:08:59.161Z,101.60
2018-12-26T04:09:59.133Z,102.80
2018-12-26T04:10:59.098Z,108.40
2018-12-26T04:11:59.067Z,80.10
2018-12-26T04:12:59.150Z,104.90
2018-12-26T04:13:59.002Z,94.80
2018-12-26T04:14:58.970Z,105.20
2018-12-26T04:15:58.940Z,92.70
2018-12-26T04:16:58.956Z,94.30
2018-12-26T04:17:58.877Z,106.20
2018-12-26T04:18:58.841Z,109.60
2018-12-26T04:19:58.828Z,104.00
2018-12-26T04:20:58.779Z,105.90
2018-12-26T04:21:58.746Z,105.30
2018-12-26T04:22:58.713Z,92.70
2018-12-26T04:23:58.681Z,62.50
2018-12-26T04:24:58.650Z,88.50
2018-12-26T04:25:58.621Z,97.10
2018-12-26T04:26:58.587Z,92.00
2018-12-26T04:27:58.555Z,84.80
2018-12-26T04:28:58.525Z,86.20
2018-12-26T04:29:58.490Z,93.30
2018-12-26T04:30:58.457Z,100.10
2018-12-26T04:31:58.423Z,100.20
2018-12-26T04:32:58.393Z,90.30
2018-12-26T04:33:58.365Z,93.40
2018-12-26T04:34:58.328Z,99.00
2018-12-26T04:35:58.297Z,102.70
2018-12-26T04:36:58.269Z,101.30
2018-12-26T04:37:58.234Z,104.70
2018-12-26T04:38:58.212Z,95.80
2018-12-26T04:39:58.176Z,94.20
2018-12-26T04:40:58.138Z,109.80
2018-12-26T04:41:58.105Z,102.90
2018-12-26T04:42:58.077Z,105.40
2018-12-26T04:43:58.041Z,109.50
2018-12-26T04:44:58.008Z,103.40
2018-12-26T04:45:57.977Z,103.60
2018-12-26T04:46:57.949Z,75.70
2018-12-26T04:47:57.911Z,85.60
2018-12-26T04:48:57.881Z,101.00
2018-12-26T04:49:57.848Z,95.10
2018-12-26T04:50:57.816Z,88.10
2018-12-26T04:51:57.786Z,92.80
2018-12-26T04:52:57.762Z,93.70
2018-12-26T04:53:57.733Z,94.90
2018-12-26T04:54:57.689Z,101.80
2018-12-26T04:55:57.661Z,76.50
2018-12-26T04:56:57.628Z,82.40
2018-12-26T04:57:57.592Z,90.90
2018-12-26T04:58:57.559Z,87.00
2018-12-26T04:59:57.529Z,95.10
2018-12-26T05:00:57.496Z,96.80
2018-12-26T05:01:57.465Z,83.50
2018-12-26T05:02:57.435Z,93.90
2018-12-26T05:03:57.403Z,103.90
2018-12-26T05:04:57.369Z,92.60
2018-12-26T05:05:57.336Z,93.40
2018-12-26T05:06:57.304Z,82.60
2018-12-26T05:07:57.272Z,92.10
2018-12-26T05:08:57.244Z,98.50
2018-12-26T05:09:57.215Z,86.00
2018-12-26T05:10:57.176Z,96.70
2018-12-26T05:11:57.144Z,101.30
2018-12-26T05:12:57.113Z,97.90
2018-12-26T05:13:57.080Z,94.50
2018-12-26T05:14:57.048Z,91.30
2018-12-26T05:15:57.020Z,106.80
2018-12-26T05:16:56.985Z,109.20
2018-12-26T05:17:56.951Z,117.10
2018-12-26T05:18:56.923Z,109.20
2018-12-26T05:19:56.889Z,104.00
2018-12-26T05:20:56.860Z,109.90
2018-12-26T05:21:56.825Z,106.40
2018-12-26T05:22:56.792Z,102.00
2018-12-26T05:23:56.769Z,111.20
2018-12-26T05:24:56.728Z,99.10
2018-12-26T05:25:56.695Z,102.70
2018-12-26T05:26:56.688Z,110.20
2018-12-26T05:27:56.631Z,116.30
2018-12-26T05:28:56.623Z,109.80
2018-12-26T05:29:56.566Z,106.10
2018-12-26T05:30:56.535Z,92.50
2018-12-26T05:31:56.502Z,117.00
2018-12-26T05:32:56.473Z,127.20
2018-12-26T05:33:56.438Z,122.70
2018-12-26T05:34:56.406Z,121.50
2018-12-26T05:35:56.374Z,129.30
2018-12-26T05:36:56.372Z,79.40
2018-12-26T05:37:56.311Z,96.10
2018-12-26T05:38:56.279Z,93.80
2018-12-26T05:39:56.245Z,112.00
2018-12-26T05:40:56.218Z,124.90
2018-12-26T05:41:56.183Z,133.40
2018-12-26T05:42:56.148Z,102.50
2018-12-26T05:43:56.118Z,121.50
2018-12-26T05:44:56.085Z,131.00
2018-12-26T05:45:56.054Z,139.50
2018-12-26T05:46:56.027Z,133.40
2018-12-26T05:47:55.990Z,145.80
2018-12-26T05:48:55.959Z,138.70
2018-12-26T05:49:55.927Z,148.70
2018-12-26T05:50:55.893Z,129.80
2018-12-26T05:51:55.862Z,151.70
2018-12-26T05:52:55.832Z,81.40
2018-12-26T05:53:55.799Z,141.00
2018-12-26T05:54:55.766Z,131.90
2018-12-26T05:55:55.737Z,131.40
2018-12-26T05:56:55.704Z,144.60
2018-12-26T05:57:55.672Z,117.90
2018-12-26T05:58:55.638Z,156.10
2018-12-26T05:59:55.607Z,150.10
2018-12-26T06:00:55.575Z,135.10
2018-12-26T06:01:55.544Z,157.50
2018-12-26T06:02:55.511Z,125.20
2018-12-26T06:03:55.479Z,126.90
2018-12-26T06:04:55.447Z,158.50
2018-12-26T06:05:55.424Z,179.70
2018-12-26T06:06:55.382Z,171.40
2018-12-26T06:07:55.351Z,144.70
2018-12-26T06:08:55.326Z,189.30
2018-12-26T06:09:55.290Z,176.60
2018-12-26T06:10:55.259Z,183.80
2018-12-26T06:11:55.244Z,205.30
2018-12-26T06:12:55.191Z,180.80
2018-12-26T06:13:55.162Z,221.60
2018-12-26T06:14:55.129Z,202.90
2018-12-26T06:15:55.099Z,205.20
2018-12-26T06:16:55.066Z,195.80
2018-12-26T06:17:55.034Z,211.60
2018-12-26T06:18:55.000Z,233.10
2018-12-26T06:19:54.970Z,236.20
2018-12-26T06:20:54.938Z,105.70
2018-12-26T06:21:54.908Z,182.00
2018-12-26T06:22:54.875Z,234.20
2018-12-26T06:23:54.883Z,235.40
2018-12-26T06:24:54.811Z,226.50
2018-12-26T06:25:54.780Z,241.00
2018-12-26T06:26:54.747Z,246.40
2018-12-26T06:27:54.717Z,231.70
2018-12-26T06:28:54.683Z,273.70
2018-12-26T06:29:54.653Z,249.60
2018-12-26T06:30:54.620Z,243.80
2018-12-26T06:31:54.588Z,281.60
2018-12-26T06:32:54.557Z,209.50
2018-12-26T06:33:54.524Z,191.10
2018-12-26T06:34:54.492Z,215.20
2018-12-26T06:35:54.461Z,156.10
2018-12-26T06:36:54.430Z,221.00
2018-12-26T06:37:54.399Z,253.40
2018-12-26T06:38:54.366Z,194.90
2018-12-26T06:39:54.333Z,257.70
2018-12-26T06:40:54.303Z,239.00
2018-12-26T06:41:54.271Z,250.60
2018-12-26T06:42:54.238Z,180.90
2018-12-26T06:43:54.209Z,260.20
2018-12-26T06:44:54.176Z,234.40
2018-12-26T06:45:54.153Z,164.10
2018-12-26T06:46:54.113Z,201.00
2018-12-26T06:47:54.080Z,282.50
2018-12-26T06:48:54.049Z,264.80
2018-12-26T06:49:54.021Z,248.30
2018-12-26T06:50:53.989Z,301.80
2018-12-26T06:51:53.959Z,224.40
2018-12-26T06:52:53.922Z,285.30
2018-12-26T06:53:53.892Z,153.80
2018-12-26T06:54:53.860Z,220.50
2018-12-26T06:55:53.829Z,226.50
2018-12-26T06:56:53.849Z,266.90
2018-12-26T06:58:00.053Z,274.80
2018-12-26T06:58:53.739Z,293.30
2018-12-26T06:59:53.702Z,311.70
2018-12-26T07:00:53.675Z,259.60
2018-12-26T07:01:53.638Z,266.60
2018-12-26T07:02:53.608Z,273.60
2018-12-26T07:03:53.578Z,238.60
2018-12-26T07:04:53.544Z,253.10
2018-12-26T07:05:53.512Z,244.80
2018-12-26T07:06:53.480Z,257.60
2018-12-26T07:07:53.448Z,243.00
2018-12-26T07:08:53.417Z,192.00
2018-12-26T07:09:53.387Z,211.70
2018-12-26T07:10:53.356Z,243.90
2018-12-26T07:11:53.332Z,308.90
2018-12-26T07:12:53.292Z,225.70
2018-12-26T07:13:53.263Z,279.10
2018-12-26T07:14:53.231Z,293.80
2018-12-26T07:15:53.199Z,238.70
2018-12-26T07:16:53.166Z,254.40
2018-12-26T07:17:53.284Z,237.10
2018-12-26T07:18:53.100Z,247.30
2018-12-26T07:19:53.071Z,284.10
2018-12-26T07:20:53.039Z,228.00
2018-12-26T07:21:53.010Z,289.90
2018-12-26T07:22:52.978Z,271.80
2018-12-26T07:23:52.944Z,271.50
2018-12-26T07:24:52.913Z,258.20
2018-12-26T07:25:52.881Z,250.30
2018-12-26T07:26:52.848Z,314.20
2018-12-26T07:27:52.818Z,289.90
2018-12-26T07:28:52.790Z,313.70
2018-12-26T07:29:52.758Z,292.40
2018-12-26T07:30:52.724Z,331.70
2018-12-26T07:31:52.691Z,317.10
2018-12-26T07:32:52.660Z,273.20
2018-12-26T07:33:52.629Z,266.30
2018-12-26T07:34:52.597Z,225.70
2018-12-26T07:35:52.570Z,297.90
2018-12-26T07:36:52.537Z,187.90
2018-12-26T07:37:52.504Z,201.10
2018-12-26T07:38:52.471Z,240.40
2018-12-26T07:39:52.444Z,273.10
2018-12-26T07:40:52.414Z,290.20
2018-12-26T07:41:52.381Z,264.00
2018-12-26T07:42:52.344Z,240.00
2018-12-26T07:43:52.313Z,248.70
2018-12-26T07:44:52.281Z,266.70
2018-12-26T07:45:52.252Z,265.50
2018-12-26T07:46:53.071Z,242.80
2018-12-26T07:47:52.186Z,238.80
2018-12-26T07:48:52.164Z,230.70
2018-12-26T07:49:52.123Z,226.20
2018-12-26T07:50:52.103Z,221.80
2018-12-26T07:51:52.061Z,230.10
2018-12-26T07:52:52.029Z,252.40
2018-12-26T07:53:51.998Z,253.90
2018-12-26T07:54:51.966Z,259.50
2018-12-26T07:55:51.934Z,254.80
2018-12-26T07:56:51.907Z,239.40
2018-12-26T07:57:51.872Z,254.00
2018-12-26T07:58:51.844Z,240.30
2018-12-26T07:59:51.810Z,224.70
2018-12-26T08:00:51.780Z,214.50
2018-12-26T08:01:51.749Z,222.30
2018-12-26T08:02:51.717Z,223.10
2018-12-26T08:03:51.684Z,254.90
2018-12-26T08:04:51.652Z,209.90
2018-12-26T08:05:51.619Z,249.40
2018-12-26T08:06:51.587Z,202.10
2018-12-26T08:07:51.578Z,205.10
2018-12-26T08:08:51.526Z,121.60
2018-12-26T08:09:51.494Z,227.80
2018-12-26T08:10:51.462Z,227.30
2018-12-26T08:11:51.430Z,232.20
2018-12-26T08:12:51.399Z,218.00
2018-12-26T08:13:51.368Z,207.40
2018-12-26T08:14:51.336Z,219.50
2018-12-26T08:15:51.304Z,207.90
2018-12-26T08:16:53.294Z,213.40
2018-12-26T08:17:51.246Z,205.80
2018-12-26T08:18:51.210Z,203.90
2018-12-26T08:19:51.180Z,185.70
2018-12-26T08:20:51.149Z,185.90
2018-12-26T08:21:51.116Z,205.60
2018-12-26T08:22:51.084Z,143.00
2018-12-26T08:23:51.056Z,196.80
2018-12-26T08:24:51.120Z,212.80
2018-12-26T08:25:50.994Z,207.50
2018-12-26T08:26:50.959Z,210.50
2018-12-26T08:27:50.928Z,223.80
2018-12-26T08:28:50.895Z,229.20
2018-12-26T08:29:50.867Z,231.80
2018-12-26T08:30:50.834Z,254.00
2018-12-26T08:31:50.802Z,216.70
2018-12-26T08:32:50.772Z,199.90
2018-12-26T08:33:50.742Z,226.00
2018-12-26T08:34:50.708Z,224.20
2018-12-26T08:35:50.682Z,262.90
2018-12-26T08:36:50.645Z,247.20
2018-12-26T08:37:50.618Z,224.40
2018-12-26T08:38:50.589Z,235.60
2018-12-26T08:39:50.558Z,259.50
2018-12-26T08:40:50.521Z,232.00
2018-12-26T08:41:50.489Z,239.80
2018-12-26T08:42:50.457Z,214.40
2018-12-26T08:43:50.427Z,202.50
2018-12-26T08:44:50.396Z,212.90
2018-12-26T08:45:50.365Z,212.50
2018-12-26T08:46:50.334Z,199.60
2018-12-26T08:47:50.300Z,225.10
2018-12-26T08:48:50.271Z,197.10
2018-12-26T08:49:50.239Z,214.20
2018-12-26T08:50:50.207Z,221.10
2018-12-26T08:51:50.262Z,163.20
2018-12-26T08:52:50.350Z,209.70
2018-12-26T08:53:50.115Z,230.80
2018-12-26T08:54:50.088Z,237.10
2018-12-26T08:55:50.053Z,267.10
2018-12-26T08:56:50.026Z,227.80
2018-12-26T08:57:49.991Z,193.10
2018-12-26T08:58:49.962Z,161.60
2018-12-26T08:59:49.927Z,271.90
2018-12-26T09:00:49.895Z,306.50
2018-12-26T09:01:49.866Z,299.80
2018-12-26T09:02:50.689Z,220.10
2018-12-26T09:03:49.804Z,194.20
2018-12-26T09:04:49.775Z,191.90
2018-12-26T09:05:49.742Z,183.70
2018-12-26T09:06:49.707Z,189.70
2018-12-26T09:07:49.677Z,189.50
2018-12-26T09:08:49.648Z,169.30
2018-12-26T09:09:49.627Z,173.30
2018-12-26T09:10:49.585Z,180.20
2018-12-26T09:11:49.552Z,172.20
2018-12-26T09:12:49.522Z,163.40
2018-12-26T09:13:49.490Z,173.10
2018-12-26T09:14:49.460Z,141.30
2018-12-26T09:15:49.428Z,134.10
2018-12-26T09:16:49.402Z,131.50
2018-12-26T09:17:49.372Z,127.10
2018-12-26T09:18:49.335Z,137.70
2018-12-26T09:19:49.308Z,129.60
2018-12-26T09:20:49.273Z,119.90
2018-12-26T09:21:49.241Z,128.40
2018-12-26T09:22:49.212Z,128.20
2018-12-26T09:23:49.180Z,125.00
2018-12-26T09:24:49.150Z,114.70
2018-12-26T09:25:49.118Z,113.00
2018-12-26T09:26:49.086Z,119.60
2018-12-26T09:27:49.055Z,115.10
2018-12-26T09:28:49.025Z,107.80
2018-12-26T09:29:48.994Z,117.30
2018-12-26T09:30:48.961Z,111.70
2018-12-26T09:31:48.930Z,121.30
2018-12-26T09:32:48.902Z,125.80
2018-12-26T09:33:48.871Z,121.30
2018-12-26T09:34:48.847Z,100.80
2018-12-26T09:35:48.811Z,109.70
2018-12-26T09:36:48.776Z,114.30
2018-12-26T09:37:48.746Z,116.30
2018-12-26T09:38:48.714Z,114.30
2018-12-26T09:39:48.683Z,118.30
2018-12-26T09:40:48.655Z,115.90
2018-12-26T09:41:48.622Z,112.00
2018-12-26T09:42:48.590Z,116.40
2018-12-26T09:43:48.560Z,107.10
2018-12-26T09:44:54.325Z,108.10
2018-12-26T09:45:48.498Z,108.20
2018-12-26T09:46:48.467Z,103.00
2018-12-26T09:47:48.435Z,98.10
2018-12-26T09:48:48.408Z,107.50
2018-12-26T09:49:48.374Z,100.40
2018-12-26T09:50:48.353Z,107.50
2018-12-26T09:51:48.313Z,101.20
2018-12-26T09:52:48.282Z,109.70
2018-12-26T09:53:48.255Z,105.50
2018-12-26T09:54:49.293Z,110.00
2018-12-26T09:55:48.190Z,115.30
2018-12-26T09:56:48.163Z,112.10
2018-12-26T09:57:48.131Z,123.50
2018-12-26T09:58:52.418Z,114.90
2018-12-26T09:59:48.066Z,111.40
2018-12-26T10:00:48.034Z,114.40
2018-12-26T10:01:48.007Z,116.80
2018-12-26T10:02:47.973Z,108.50
2018-12-26T10:03:47.944Z,111.40
2018-12-26T10:04:47.914Z,115.30
2018-12-26T10:05:47.882Z,110.00
2018-12-26T10:06:47.850Z,112.30
2018-12-26T10:07:47.819Z,119.90
2018-12-26T10:08:47.790Z,120.70
2018-12-26T10:09:47.758Z,130.40
2018-12-26T10:10:47.728Z,115.10
2018-12-26T10:11:47.695Z,118.60
2018-12-26T10:12:47.667Z,103.00
2018-12-26T10:13:47.634Z,126.90
2018-12-26T10:14:47.604Z,104.00
2018-12-26T10:15:47.572Z,103.10
2018-12-26T10:16:47.547Z,107.20
2018-12-26T10:17:47.510Z,120.10
2018-12-26T10:18:47.484Z,117.30
2018-12-26T10:19:47.450Z,119.50
2018-12-26T10:20:47.419Z,117.40
2018-12-26T10:21:47.392Z,119.40
2018-12-26T10:22:47.357Z,117.70
2018-12-26T10:23:47.332Z,111.60
2018-12-26T10:24:47.296Z,123.60
2018-12-26T10:25:47.265Z,118.30
2018-12-26T10:26:47.240Z,123.20
2018-12-26T10:27:47.202Z,129.70
2018-12-26T10:28:47.259Z,121.70
2018-12-26T10:29:47.141Z,109.70
2018-12-26T10:30:47.111Z,113.00
2018-12-26T10:31:47.081Z,115.60
2018-12-26T10:32:47.050Z,126.00
2018-12-26T10:33:47.020Z,104.20
2018-12-26T10:34:46.995Z,103.10
2018-12-26T10:35:46.957Z,106.50
2018-12-26T10:36:46.927Z,106.20
2018-12-26T10:37:46.906Z,110.90
2018-12-26T10:38:46.867Z,95.50
2018-12-26T10:39:46.837Z,103.40
2018-12-26T10:40:46.804Z,101.60
2018-12-26T10:41:46.774Z,100.50
2018-12-26T10:42:46.744Z,93.30
2018-12-26T10:43:46.714Z,88.80
2018-12-26T10:44:46.682Z,90.70
2018-12-26T10:45:46.652Z,84.10
2018-12-26T10:46:46.619Z,85.80
2018-12-26T10:47:46.590Z,88.20
2018-12-26T10:48:46.559Z,87.10
2018-12-26T10:49:46.529Z,97.10
2018-12-26T10:50:46.499Z,98.00
2018-12-26T10:51:46.466Z,98.70
2018-12-26T10:52:46.441Z,101.70
2018-12-26T10:53:46.405Z,100.90
2018-12-26T10:54:46.376Z,94.80
2018-12-26T10:55:46.345Z,87.20
2018-12-26T10:56:46.313Z,83.10
2018-12-26T10:57:46.285Z,93.70
2018-12-26T10:58:46.253Z,92.50
2018-12-26T10:59:46.222Z,98.30
2018-12-26T11:00:46.192Z,95.70
2018-12-26T11:01:46.161Z,99.50
2018-12-26T11:02:46.130Z,91.80
2018-12-26T11:03:46.114Z,98.70
2018-12-26T11:04:46.069Z,102.70
2018-12-26T11:05:46.040Z,93.40
2018-12-26T11:06:46.008Z,88.40
2018-12-26T11:07:45.978Z,103.20
2018-12-26T11:08:45.947Z,91.70
2018-12-26T11:09:45.916Z,101.30
2018-12-26T11:10:45.885Z,111.90
2018-12-26T11:11:45.856Z,97.30
2018-12-26T11:12:45.824Z,94.10
2018-12-26T11:13:45.795Z,101.00
2018-12-26T11:14:45.764Z,98.10
2018-12-26T11:15:45.735Z,115.10
2018-12-26T11:16:45.706Z,134.60
2018-12-26T11:17:45.676Z,126.40
2018-12-26T11:18:45.642Z,146.70
2018-12-26T11:19:45.611Z,144.80
2018-12-26T11:20:45.580Z,161.30
2018-12-26T11:21:45.551Z,176.40
2018-12-26T11:22:45.521Z,213.80
2018-12-26T11:23:45.488Z,166.10
2018-12-26T11:24:45.465Z,150.60
2018-12-26T11:25:45.427Z,166.30
2018-12-26T11:26:45.396Z,213.00
2018-12-26T11:27:45.367Z,184.80
2018-12-26T11:28:45.336Z,167.10
2018-12-26T11:29:45.311Z,124.10
2018-12-26T11:30:45.279Z,159.20
2018-12-26T11:31:45.244Z,155.60
2018-12-26T11:32:45.215Z,126.40
2018-12-26T11:33:45.185Z,121.30
2018-12-26T11:34:45.154Z,140.30
2018-12-26T11:35:45.123Z,141.40
2018-12-26T11:36:45.096Z,136.60
2018-12-26T11:37:45.065Z,137.30
2018-12-26T11:38:45.033Z,134.90
2018-12-26T11:39:45.001Z,121.80
2018-12-26T11:40:44.971Z,127.20
2018-12-26T11:41:44.944Z,127.10
2018-12-26T11:42:44.910Z,119.40
2018-12-26T11:43:44.881Z,116.30
2018-12-26T11:44:44.849Z,123.40
2018-12-26T11:45:44.819Z,135.20
2018-12-26T11:46:44.787Z,134.20
2018-12-26T11:47:44.757Z,120.30
2018-12-26T11:48:44.734Z,121.00
2018-12-26T11:49:44.699Z,130.60
2018-12-26T11:50:44.666Z,119.50
2018-12-26T11:51:44.635Z,120.30
2018-12-26T11:52:44.605Z,135.00
2018-12-26T11:53:44.577Z,138.30
2018-12-26T11:54:44.544Z,121.30
2018-12-26T11:55:44.514Z,106.80
2018-12-26T11:56:44.482Z,119.80
2018-12-26T11:57:44.453Z,128.40
2018-12-26T11:58:44.424Z,125.90
2018-12-26T11:59:44.391Z,131.20
2018-12-26T12:00:44.361Z,118.80
2018-12-26T12:01:44.333Z,110.10
2018-12-26T12:02:44.308Z,103.00
2018-12-26T12:03:44.271Z,101.60
2018-12-26T12:04:44.242Z,120.30
2018-12-26T12:05:44.211Z,111.30
2018-12-26T12:06:44.180Z,105.30
2018-12-26T12:07:44.150Z,97.40
2018-12-26T12:08:44.121Z,103.40
2018-12-26T12:09:44.088Z,101.00
2018-12-26T12:10:44.077Z,109.90
2018-12-26T12:11:44.028Z,119.60
2018-12-26T12:12:43.999Z,105.50
2018-12-26T12:13:43.968Z,105.50
2018-12-26T12:14:43.937Z,121.50
2018-12-26T12:15:43.912Z,109.80
2018-12-26T12:16:43.882Z,107.50
2018-12-26T12:17:43.847Z,125.20
2018-12-26T12:18:43.814Z,119.70
2018-12-26T12:19:45.179Z,110.00
2018-12-26T12:20:43.755Z,129.10
2018-12-26T12:21:43.732Z,121.50
2018-12-26T12:22:43.695Z,123.00
2018-12-26T12:23:43.734Z,126.60
2018-12-26T12:24:43.635Z,129.60
2018-12-26T12:25:43.605Z,143.10
2018-12-26T12:26:43.573Z,123.00
2018-12-26T12:27:43.545Z,132.70
2018-12-26T12:28:43.513Z,125.70
2018-12-26T12:29:43.484Z,129.50
2018-12-26T12:30:43.459Z,162.10
2018-12-26T12:31:43.422Z,173.10
2018-12-26T12:32:43.399Z,182.90
2018-12-26T12:33:43.362Z,176.40
2018-12-26T12:34:43.338Z,189.60
2018-12-26T12:35:43.303Z,209.60
2018-12-26T12:36:43.274Z,201.30
2018-12-26T12:37:43.244Z,181.60